createdAt,value
2019-02-22T00:02:10.321Z,9.42
2019-02-22T00:04:39.102Z,9.38
2019-02-22T00:07:07.958Z,9.43
2019-02-22T00:09:37.136Z,9.48
2019-02-22T00:12:06.005Z,9.44
2019-02-22T00:14:35.170Z,9.43
2019-02-22T00:17:03.961Z,9.45
2019-02-22T00:19:32.863Z,9.47
2019-02-22T00:22:01.962Z,9.47
2019-02-22T00:24:30.759Z,9.47
2019-02-22T00:26:59.591Z,9.46
2019-02-22T00:29:28.735Z,9.47
2019-02-22T00:31:58.130Z,9.48
2019-02-22T00:34:27.347Z,9.44
2019-02-22T00:36:56.174Z,9.42
2019-02-22T00:39:25.457Z,9.43
2019-02-22T00:41:54.875Z,9.42
2019-02-22T00:44:23.681Z,9.45
2019-02-22T00:46:52.447Z,9.43
2019-02-22T00:49:21.223Z,9.44
2019-02-22T00:51:50.080Z,9.42
2019-02-22T00:54:18.854Z,9.47
2019-02-22T00:56:47.728Z,9.52
2019-02-22T00:59:16.555Z,9.53
2019-02-22T01:01:45.448Z,9.54
2019-02-22T01:04:14.627Z,9.49
2019-02-22T01:06:43.495Z,9.52
2019-02-22T01:09:12.440Z,9.52
2019-02-22T01:11:41.247Z,9.51
2019-02-22T01:14:10.022Z,9.47
2019-02-22T01:16:39.278Z,9.47
2019-02-22T01:19:08.113Z,9.46
2019-02-22T01:21:36.875Z,9.46
2019-02-22T01:24:05.652Z,9.46
2019-02-22T01:26:34.559Z,9.46
2019-02-22T01:29:03.471Z,9.49
2019-02-22T01:31:32.989Z,9.51
2019-02-22T01:34:02.152Z,9.51
2019-02-22T01:36:30.937Z,9.48
2019-02-22T01:38:59.714Z,9.44
2019-02-22T01:41:28.796Z,9.42
2019-02-22T01:43:57.570Z,9.35
2019-02-22T01:46:26.405Z,9.42
2019-02-22T01:48:55.270Z,9.41
2019-02-22T01:51:24.254Z,9.37
2019-02-22T01:53:54.107Z,9.41
2019-02-22T01:56:22.990Z,9.40
2019-02-22T01:58:51.791Z,9.41
2019-02-22T02:01:20.561Z,9.36
2019-02-22T02:03:49.347Z,9.38
2019-02-22T02:06:18.406Z,9.42
2019-02-22T02:08:47.196Z,9.42
2019-02-22T02:11:15.974Z,9.43
2019-02-22T02:13:44.765Z,9.39
2019-02-22T02:16:13.529Z,9.39
2019-02-22T02:18:42.329Z,9.33
2019-02-22T02:21:11.124Z,9.33
2019-02-22T02:23:39.940Z,9.31
2019-02-22T02:26:09.541Z,9.29
2019-02-22T02:28:39.139Z,9.15
2019-02-22T02:31:07.927Z,9.04
2019-02-22T02:33:37.414Z,9.12
2019-02-22T02:36:06.370Z,9.24
2019-02-22T02:38:35.237Z,9.24
2019-02-22T02:41:08.438Z,9.36
2019-02-22T02:43:35.192Z,9.31
2019-02-22T02:46:03.984Z,9.30
2019-02-22T02:48:33.146Z,9.28
2019-02-22T02:51:02.614Z,9.48
2019-02-22T02:53:31.381Z,9.48
2019-02-22T02:56:00.702Z,9.46
2019-02-22T02:58:29.509Z,9.46
2019-02-22T03:00:58.314Z,9.44
2019-02-22T03:03:27.871Z,9.43
2019-02-22T03:06:34.239Z,9.41
2019-02-22T03:09:04.930Z,9.41
2019-02-22T03:11:34.713Z,9.38
2019-02-22T03:14:04.593Z,9.37
2019-02-22T03:16:34.511Z,9.35
2019-02-22T03:19:04.601Z,9.36
2019-02-22T03:21:33.401Z,9.32
2019-02-22T03:24:02.816Z,9.24
2019-02-22T03:26:31.649Z,9.25
2019-02-22T03:29:00.513Z,9.25
2019-02-22T03:31:30.220Z,9.21
2019-02-22T03:33:59.654Z,9.19
2019-02-22T03:36:28.771Z,9.16
2019-02-22T03:38:57.556Z,9.16
2019-02-22T03:41:32.755Z,9.17
2019-02-22T03:43:58.072Z,9.16
2019-02-22T03:46:26.828Z,9.16
2019-02-22T03:48:56.010Z,9.10
2019-02-22T03:51:25.604Z,9.13
2019-02-22T03:54:00.324Z,9.16
2019-02-22T03:56:30.302Z,9.14
2019-02-22T03:59:00.307Z,9.12
2019-02-22T04:01:29.655Z,9.16
2019-02-22T04:03:59.683Z,9.18
2019-02-22T04:06:28.756Z,9.17
2019-02-22T04:08:57.842Z,9.18
2019-02-22T04:11:27.448Z,9.18
2019-02-22T04:13:56.759Z,9.11
2019-02-22T04:16:25.935Z,9.15
2019-02-22T04:18:55.282Z,9.21
2019-02-22T04:21:24.119Z,9.19
2019-02-22T04:23:53.326Z,9.14
2019-02-22T04:26:23.852Z,9.18
2019-02-22T04:28:55.121Z,9.18
2019-02-22T04:31:24.920Z,9.20
2019-02-22T04:33:54.085Z,9.19
2019-02-22T04:36:23.289Z,9.16
2019-02-22T04:38:52.270Z,9.13
2019-02-22T04:41:21.304Z,9.13
2019-02-22T04:43:50.444Z,9.11
2019-02-22T04:46:19.305Z,9.08
2019-02-22T04:48:49.102Z,9.09
2019-02-22T04:51:18.652Z,9.10
2019-02-22T04:53:48.524Z,9.11
2019-02-22T04:56:18.408Z,9.10
2019-02-22T04:58:47.885Z,9.12
2019-02-22T05:01:17.356Z,9.09
2019-02-22T05:03:46.504Z,9.09
2019-02-22T05:06:15.696Z,9.08
2019-02-22T05:08:44.845Z,9.09
2019-02-22T05:11:13.606Z,9.11
2019-02-22T05:13:42.794Z,9.15
2019-02-22T05:16:12.645Z,9.15
2019-02-22T05:18:42.346Z,9.15
2019-02-22T05:21:11.997Z,9.12
2019-02-22T05:23:42.294Z,9.12
2019-02-22T05:26:12.135Z,9.08
2019-02-22T05:28:41.968Z,9.11
2019-02-22T05:31:11.502Z,9.11
2019-02-22T05:33:40.654Z,9.13
2019-02-22T05:36:09.782Z,9.13
2019-02-22T05:38:38.549Z,9.16
2019-02-22T05:41:07.309Z,9.16
2019-02-22T05:43:36.139Z,9.18
2019-02-22T05:46:05.613Z,9.18
2019-02-22T05:48:34.695Z,9.15
2019-02-22T05:51:04.242Z,9.14
2019-02-22T05:53:33.983Z,9.11
2019-02-22T05:56:03.568Z,9.11
2019-02-22T05:58:32.341Z,9.10
2019-02-22T06:01:01.923Z,9.07
2019-02-22T06:03:31.039Z,9.07
2019-02-22T06:05:59.874Z,9.01
2019-02-22T06:08:28.653Z,8.93
2019-02-22T06:10:57.437Z,8.92
2019-02-22T06:13:26.228Z,8.88
2019-02-22T06:15:55.031Z,8.91
2019-02-22T06:18:24.205Z,8.96
2019-02-22T06:20:52.978Z,9.07
2019-02-22T06:23:23.411Z,9.12
2019-02-22T06:25:55.572Z,9.13
2019-02-22T06:28:24.837Z,9.22
2019-02-22T06:30:54.008Z,9.19
2019-02-22T06:33:22.761Z,9.18
2019-02-22T06:35:52.539Z,9.21
2019-02-22T06:38:21.401Z,9.35
2019-02-22T06:40:50.205Z,9.33
2019-02-22T06:43:19.320Z,9.37
2019-02-22T06:45:48.724Z,9.39
2019-02-22T06:48:17.581Z,9.38
2019-02-22T06:50:46.348Z,9.39
2019-02-22T06:53:15.258Z,9.42
2019-02-22T06:55:44.410Z,9.53
2019-02-22T06:58:13.606Z,9.50
2019-02-22T07:00:42.370Z,9.53
2019-02-22T07:03:11.202Z,9.49
2019-02-22T07:05:39.979Z,9.49
2019-02-22T07:08:08.819Z,9.46
2019-02-22T07:10:55.512Z,9.46
2019-02-22T07:13:36.421Z,9.47
2019-02-22T07:16:05.587Z,9.63
2019-02-22T07:18:34.377Z,9.70
2019-02-22T07:21:03.256Z,9.62
2019-02-22T07:23:32.045Z,9.59
2019-02-22T07:26:00.937Z,9.58
2019-02-22T07:28:29.750Z,9.62
2019-02-22T07:30:58.528Z,9.63
2019-02-22T07:33:27.355Z,9.73
2019-02-22T07:35:56.170Z,9.74
2019-02-22T07:38:25.273Z,9.55
2019-02-22T07:40:54.068Z,9.47
2019-02-22T07:43:22.875Z,9.42
2019-02-22T07:45:51.656Z,9.33
2019-02-22T07:48:20.431Z,9.32
2019-02-22T07:50:57.441Z,9.35
2019-02-22T07:53:19.756Z,9.35
2019-02-22T07:55:48.540Z,9.44
2019-02-22T07:58:17.349Z,9.42
2019-02-22T08:00:46.234Z,9.49
2019-02-22T08:03:15.010Z,9.30
2019-02-22T08:05:44.187Z,9.38
2019-02-22T08:08:12.988Z,9.37
2019-02-22T08:10:41.802Z,9.29
2019-02-22T08:13:19.244Z,9.29
2019-02-22T08:15:41.191Z,9.35
2019-02-22T08:18:10.019Z,9.32
2019-02-22T08:20:38.813Z,9.30
2019-02-22T08:23:07.586Z,9.30
2019-02-22T08:25:40.236Z,9.31
2019-02-22T08:28:09.083Z,9.46
2019-02-22T08:30:37.975Z,9.34
2019-02-22T08:33:06.905Z,9.36
2019-02-22T08:35:35.677Z,9.36
2019-02-22T08:38:04.644Z,9.43
2019-02-22T08:40:33.441Z,9.36
2019-02-22T08:43:02.244Z,9.38
2019-02-22T08:45:31.038Z,9.46
2019-02-22T08:47:59.827Z,9.49
2019-02-22T08:50:28.594Z,9.50
2019-02-22T08:52:57.391Z,9.49
2019-02-22T08:55:26.528Z,9.49
2019-02-22T08:57:55.308Z,9.57
2019-02-22T09:00:24.173Z,9.61
2019-02-22T09:02:53.775Z,9.79
2019-02-22T09:05:22.561Z,9.87
2019-02-22T09:07:51.332Z,9.98
2019-02-22T09:10:20.139Z,10.30
2019-02-22T09:12:48.951Z,10.38
2019-02-22T09:15:17.803Z,10.82
2019-02-22T09:17:46.602Z,11.09
2019-02-22T09:20:15.436Z,10.99
2019-02-22T09:22:44.204Z,10.92
2019-02-22T09:25:13.077Z,11.17
2019-02-22T09:27:41.952Z,11.53
2019-02-22T09:30:11.366Z,11.74
2019-02-22T09:32:40.181Z,11.90
2019-02-22T09:35:10.421Z,12.49
2019-02-22T09:37:39.739Z,12.70
2019-02-22T09:40:09.961Z,12.88
2019-02-22T09:42:38.749Z,13.49
2019-02-22T09:45:08.855Z,13.74
2019-02-22T09:47:37.740Z,13.38
2019-02-22T09:50:08.274Z,12.81
2019-02-22T09:52:37.207Z,12.47
2019-02-22T09:55:07.622Z,12.53
2019-02-22T09:57:36.494Z,13.08
2019-02-22T10:00:07.299Z,13.18
2019-02-22T10:02:36.168Z,13.22
2019-02-22T10:05:05.318Z,13.04
2019-02-22T10:07:34.130Z,12.92
2019-02-22T10:10:02.994Z,12.79
2019-02-22T10:12:31.769Z,12.55
2019-02-22T10:15:00.551Z,12.48
2019-02-22T10:17:29.352Z,12.14
2019-02-22T10:19:58.155Z,11.80
2019-02-22T10:22:26.994Z,12.07
2019-02-22T10:24:55.823Z,12.10
2019-02-22T10:27:24.668Z,11.47
2019-02-22T10:29:53.482Z,11.92
2019-02-22T10:32:22.254Z,11.79
2019-02-22T10:34:51.058Z,11.07
2019-02-22T10:37:19.915Z,11.16
2019-02-22T10:39:48.991Z,11.05
2019-02-22T10:42:17.867Z,10.90
2019-02-22T10:44:46.720Z,11.26
2019-02-22T10:47:15.508Z,11.15
2019-02-22T10:49:44.306Z,11.34
2019-02-22T10:52:13.070Z,11.31
2019-02-22T10:54:41.876Z,11.58
2019-02-22T10:57:10.649Z,11.62
2019-02-22T10:59:39.442Z,11.54
2019-02-22T11:02:08.515Z,11.04
2019-02-22T11:04:37.389Z,11.30
2019-02-22T11:07:06.298Z,11.30
2019-02-22T11:09:35.186Z,10.85
2019-02-22T11:12:04.045Z,10.59
2019-02-22T11:14:32.857Z,10.73
2019-02-22T11:17:01.639Z,10.61
2019-02-22T11:19:38.320Z,10.73
2019-02-22T11:22:16.336Z,10.91
2019-02-22T11:24:54.328Z,11.01
2019-02-22T11:27:23.588Z,11.17
2019-02-22T11:29:52.408Z,11.26
2019-02-22T11:32:21.588Z,11.51
2019-02-22T11:34:50.363Z,11.51
2019-02-22T11:37:19.150Z,11.63
2019-02-22T11:39:47.936Z,11.59
2019-02-22T11:42:16.745Z,11.55
2019-02-22T11:44:45.553Z,11.65
2019-02-22T11:47:14.399Z,11.51
2019-02-22T11:49:43.189Z,11.58
2019-02-22T11:52:12.076Z,11.71
2019-02-22T11:54:40.846Z,11.50
2019-02-22T11:57:10.378Z,11.51
2019-02-22T11:59:39.244Z,10.98
2019-02-22T12:02:08.096Z,11.23
2019-02-22T12:04:36.904Z,10.63
2019-02-22T12:07:05.808Z,10.82
2019-02-22T12:09:35.037Z,10.94
2019-02-22T12:12:03.851Z,10.95
2019-02-22T12:14:33.097Z,11.01
2019-02-22T12:17:04.854Z,11.04
2019-02-22T12:19:33.663Z,11.23
2019-02-22T12:22:02.434Z,11.44
2019-02-22T12:24:31.221Z,11.45
2019-02-22T12:27:00.069Z,11.31
2019-02-22T12:29:29.022Z,11.65
2019-02-22T12:31:57.832Z,11.24
2019-02-22T12:34:26.616Z,11.44
2019-02-22T12:36:55.409Z,11.80
2019-02-22T12:39:24.289Z,11.95
2019-02-22T12:41:53.759Z,12.20
2019-02-22T12:44:22.698Z,12.61
2019-02-22T12:46:51.525Z,12.65
2019-02-22T12:49:20.325Z,12.48
2019-02-22T12:51:49.254Z,12.45
2019-02-22T12:54:18.025Z,12.79
2019-02-22T12:56:57.571Z,12.73
2019-02-22T12:59:17.784Z,12.71
2019-02-22T13:01:46.580Z,12.26
2019-02-22T13:04:15.387Z,12.45
2019-02-22T13:06:44.157Z,12.28
2019-02-22T13:09:13.005Z,12.06
2019-02-22T13:11:41.797Z,11.54
2019-02-22T13:14:10.571Z,11.41
2019-02-22T13:16:39.696Z,11.04
2019-02-22T13:19:08.467Z,10.53
2019-02-22T13:21:37.238Z,10.15
2019-02-22T13:24:06.102Z,9.72
2019-02-22T13:26:34.963Z,9.40
2019-02-22T13:29:04.969Z,9.59
2019-02-22T13:31:33.993Z,9.51
2019-02-22T13:34:02.859Z,9.66
2019-02-22T13:36:31.798Z,9.58
2019-02-22T13:39:00.635Z,9.46
2019-02-22T13:41:29.500Z,9.32
2019-02-22T13:43:58.332Z,9.28
2019-02-22T13:46:28.894Z,9.10
2019-02-22T13:48:57.887Z,9.04
2019-02-22T13:51:27.073Z,8.91
2019-02-22T13:53:55.874Z,9.09
2019-02-22T13:56:29.659Z,9.05
2019-02-22T13:58:55.128Z,9.02
2019-02-22T14:01:24.407Z,8.90
2019-02-22T14:03:53.176Z,8.97
2019-02-22T14:06:22.289Z,8.81
2019-02-22T14:08:51.117Z,8.75
2019-02-22T14:11:19.892Z,8.62
2019-02-22T14:13:48.761Z,8.55
2019-02-22T14:16:17.565Z,8.54
2019-02-22T14:18:46.355Z,8.62
2019-02-22T14:21:15.145Z,8.36
2019-02-22T14:23:43.955Z,8.57
2019-02-22T14:26:12.910Z,8.32
2019-02-22T14:28:41.690Z,8.16
2019-02-22T14:31:10.479Z,8.51
2019-02-22T14:33:39.247Z,8.76
2019-02-22T14:36:08.161Z,8.89
2019-02-22T14:38:37.134Z,8.80
2019-02-22T14:41:05.895Z,8.79
2019-02-22T14:43:34.754Z,8.48
2019-02-22T14:46:03.575Z,8.46
2019-02-22T14:48:32.350Z,8.31
2019-02-22T14:51:01.181Z,8.13
2019-02-22T14:53:29.952Z,7.91
2019-02-22T14:55:59.871Z,8.03
2019-02-22T14:58:28.806Z,8.06
2019-02-22T15:00:57.651Z,7.98
2019-02-22T15:03:26.458Z,7.97
2019-02-22T15:05:55.262Z,7.72
2019-02-22T15:08:24.108Z,7.68
2019-02-22T15:10:52.900Z,7.81
2019-02-22T15:13:21.670Z,7.88
2019-02-22T15:16:24.852Z,7.83
2019-02-22T15:18:53.681Z,7.60
2019-02-22T15:21:22.446Z,7.74
2019-02-22T15:23:51.226Z,7.59
2019-02-22T15:26:20.026Z,7.46
2019-02-22T15:28:48.805Z,7.25
2019-02-22T15:31:17.575Z,7.19
2019-02-22T15:33:46.384Z,7.19
2019-02-22T15:36:16.082Z,7.31
2019-02-22T15:38:45.066Z,7.21
2019-02-22T15:41:13.862Z,7.25
2019-02-22T15:43:42.666Z,7.20
2019-02-22T15:46:12.483Z,7.24
2019-02-22T15:48:41.450Z,7.04
2019-02-22T15:51:10.213Z,7.11
2019-02-22T15:53:39.029Z,6.94
2019-02-22T15:56:07.805Z,6.63
2019-02-22T15:58:36.568Z,6.73
2019-02-22T16:01:05.646Z,6.79
2019-02-22T16:03:57.836Z,6.85
2019-02-22T16:06:26.820Z,6.74
2019-02-22T16:08:55.733Z,6.60
2019-02-22T16:11:24.730Z,6.74
2019-02-22T16:13:53.610Z,6.73
2019-02-22T16:16:23.477Z,6.74
2019-02-22T16:18:52.438Z,6.74
2019-02-22T16:21:21.490Z,6.76
2019-02-22T16:23:50.258Z,6.65
2019-02-22T16:26:22.437Z,6.62
2019-02-22T16:28:51.240Z,6.59
2019-02-22T16:31:20.046Z,6.47
2019-02-22T16:33:48.936Z,6.41
2019-02-22T16:36:17.792Z,6.38
2019-02-22T16:38:46.547Z,6.30
2019-02-22T16:41:15.378Z,6.38
2019-02-22T16:43:44.173Z,6.36
2019-02-22T16:46:12.973Z,6.36
2019-02-22T16:48:41.809Z,6.42
2019-02-22T16:51:10.624Z,6.31
2019-02-22T16:53:39.388Z,6.46
2019-02-22T16:56:08.239Z,6.30
2019-02-22T16:58:37.036Z,6.27
2019-02-22T17:01:05.882Z,6.33
2019-02-22T17:03:34.994Z,6.30
2019-02-22T17:06:04.080Z,6.09
2019-02-22T17:08:32.863Z,6.10
2019-02-22T17:11:05.011Z,6.05
2019-02-22T17:13:33.784Z,6.05
2019-02-22T17:16:02.672Z,6.12
2019-02-22T17:18:31.446Z,6.07
2019-02-22T17:21:00.221Z,5.94
2019-02-22T17:23:29.029Z,5.96
2019-02-22T17:25:57.819Z,5.93
2019-02-22T17:28:29.298Z,5.82
2019-02-22T17:31:01.102Z,5.76
2019-02-22T17:33:29.866Z,5.68
2019-02-22T17:35:58.636Z,5.78
2019-02-22T17:38:27.400Z,5.71
2019-02-22T17:40:56.277Z,5.72
2019-02-22T17:43:25.146Z,5.75
2019-02-22T17:45:53.917Z,5.75
2019-02-22T17:48:22.691Z,5.75
2019-02-22T17:50:51.970Z,5.62
2019-02-22T17:53:20.747Z,5.61
2019-02-22T17:55:49.547Z,5.66
2019-02-22T17:58:24.481Z,5.54
2019-02-22T18:00:48.853Z,5.61
2019-02-22T18:03:17.645Z,5.66
2019-02-22T18:05:46.432Z,5.66
2019-02-22T18:08:15.498Z,5.57
2019-02-22T18:10:44.319Z,5.50
2019-02-22T18:13:15.892Z,5.46
2019-02-22T18:15:46.796Z,5.51
2019-02-22T18:18:16.824Z,5.44
2019-02-22T18:20:45.786Z,5.40
2019-02-22T18:23:14.593Z,5.37
2019-02-22T18:25:43.436Z,5.32
2019-02-22T18:28:12.205Z,5.23
2019-02-22T18:30:41.009Z,5.15
2019-02-22T18:33:10.955Z,4.97
2019-02-22T18:35:41.584Z,4.98
2019-02-22T18:38:10.362Z,4.92
2019-02-22T18:40:39.184Z,4.78
2019-02-22T18:43:11.359Z,4.78
2019-02-22T18:45:40.240Z,4.78
2019-02-22T18:48:09.050Z,4.66
2019-02-22T18:50:37.818Z,4.74
2019-02-22T18:53:06.958Z,4.70
2019-02-22T18:55:35.729Z,4.78
2019-02-22T18:58:04.620Z,4.77
2019-02-22T19:00:33.392Z,4.69
2019-02-22T19:03:02.171Z,4.82
2019-02-22T19:05:31.046Z,4.85
2019-02-22T19:07:59.824Z,4.92
2019-02-22T19:10:28.603Z,4.92
2019-02-22T19:12:57.420Z,4.96
2019-02-22T19:15:26.199Z,4.77
2019-02-22T19:17:54.992Z,4.63
2019-02-22T19:20:26.216Z,4.67
2019-02-22T19:22:54.984Z,4.67
2019-02-22T19:25:23.756Z,4.73
2019-02-22T19:27:52.566Z,4.75
2019-02-22T19:30:21.404Z,4.61
2019-02-22T19:32:50.174Z,4.65
2019-02-22T19:35:19.091Z,4.75
2019-02-22T19:37:47.855Z,4.76
2019-02-22T19:40:18.530Z,4.76
2019-02-22T19:42:47.338Z,4.71
2019-02-22T19:45:16.160Z,4.68
2019-02-22T19:47:45.035Z,4.72
2019-02-22T19:50:14.037Z,4.75
2019-02-22T19:52:42.952Z,4.72
2019-02-22T19:55:13.079Z,4.73
2019-02-22T19:57:41.873Z,4.66
2019-02-22T20:00:13.303Z,4.64
2019-02-22T20:02:42.088Z,4.71
2019-02-22T20:05:11.283Z,4.75
2019-02-22T20:07:40.356Z,4.70
2019-02-22T20:10:17.723Z,4.77
2019-02-22T20:12:41.535Z,4.71
2019-02-22T20:15:12.039Z,4.77
2019-02-22T20:17:40.955Z,4.67
2019-02-22T20:20:11.824Z,4.72
2019-02-22T20:22:40.679Z,4.69
2019-02-22T20:25:11.114Z,4.64
2019-02-22T20:27:39.911Z,4.69
2019-02-22T20:30:11.224Z,4.70
2019-02-22T20:32:40.413Z,4.71
2019-02-22T20:35:11.465Z,4.68
2019-02-22T20:37:40.288Z,4.72
2019-02-22T20:40:09.211Z,4.76
2019-02-22T20:42:38.355Z,4.73
2019-02-22T20:45:07.822Z,4.74
2019-02-22T20:47:36.625Z,4.71
2019-02-22T20:50:06.011Z,4.65
2019-02-22T20:52:34.821Z,4.51
2019-02-22T20:55:03.723Z,4.58
2019-02-22T20:57:34.770Z,4.69
2019-02-22T21:00:03.161Z,4.84
2019-02-22T21:02:31.964Z,4.88
2019-02-22T21:05:00.751Z,4.83
2019-02-22T21:07:29.802Z,4.90
2019-02-22T21:09:58.599Z,4.89
2019-02-22T21:12:27.384Z,4.92
2019-02-22T21:14:56.180Z,5.00
2019-02-22T21:17:24.986Z,4.98
2019-02-22T21:19:53.761Z,4.93
2019-02-22T21:22:23.994Z,5.03
2019-02-22T21:24:52.824Z,5.05
2019-02-22T21:27:21.609Z,5.04
2019-02-22T21:29:50.394Z,5.03
2019-02-22T21:32:19.191Z,5.00
2019-02-22T21:34:48.949Z,4.98
2019-02-22T21:37:17.886Z,4.97
2019-02-22T21:39:46.762Z,4.99
2019-02-22T21:42:20.180Z,4.95
2019-02-22T21:44:46.046Z,4.93
2019-02-22T21:47:14.845Z,4.94
2019-02-22T21:49:43.675Z,4.95
2019-02-22T21:52:12.476Z,4.92
2019-02-22T21:54:41.240Z,4.96
2019-02-22T21:57:10.056Z,4.94
2019-02-22T21:59:38.830Z,5.00
2019-02-22T22:02:07.589Z,5.01
2019-02-22T22:04:36.395Z,4.98
2019-02-22T22:07:05.260Z,5.02
2019-02-22T22:09:34.037Z,4.99
2019-02-22T22:12:02.806Z,5.03
2019-02-22T22:14:31.656Z,5.05
2019-02-22T22:17:00.417Z,5.01
2019-02-22T22:19:29.187Z,4.99
2019-02-22T22:21:57.990Z,4.79
2019-02-22T22:24:26.769Z,4.99
2019-02-22T22:26:55.586Z,5.00
2019-02-22T22:29:24.397Z,4.98
2019-02-22T22:31:53.171Z,5.00
2019-02-22T22:34:21.948Z,5.00
2019-02-22T22:36:50.770Z,4.97
2019-02-22T22:39:19.555Z,4.89
2019-02-22T22:41:48.367Z,4.91
2019-02-22T22:44:17.162Z,5.01
2019-02-22T22:46:45.949Z,4.96
2019-02-22T22:49:14.742Z,5.08
2019-02-22T22:51:43.543Z,5.12
2019-02-22T22:54:12.403Z,5.08
2019-02-22T22:56:41.182Z,5.05
2019-02-22T22:59:10.029Z,5.06
2019-02-22T23:01:39.446Z,5.08
2019-02-22T23:04:08.199Z,5.07
2019-02-22T23:06:37.049Z,5.07
2019-02-22T23:09:10.478Z,5.04
2019-02-22T23:11:39.323Z,5.05
2019-02-22T23:14:08.164Z,5.07
2019-02-22T23:16:36.962Z,5.00
2019-02-22T23:19:05.721Z,5.01
2019-02-22T23:21:34.501Z,5.05
2019-02-22T23:24:03.302Z,4.96
2019-02-22T23:26:32.149Z,5.04
2019-02-22T23:29:01.889Z,5.08
2019-02-22T23:31:30.788Z,5.07
2019-02-22T23:33:59.588Z,4.99
2019-02-22T23:36:28.385Z,4.78
2019-02-22T23:38:57.161Z,4.54
2019-02-22T23:41:25.977Z,4.40
2019-02-22T23:43:54.816Z,4.26
2019-02-22T23:46:23.587Z,4.12
2019-02-22T23:48:52.394Z,4.02
2019-02-22T23:51:21.258Z,3.90
2019-02-22T23:53:50.033Z,3.75
2019-02-22T23:56:18.858Z,3.56
2019-02-22T23:58:47.619Z,3.47
